Barry Lakes, New Jersey
Current Conditions -  °F | °C
As of 8:53 PM on Friday 21 Nov 2014 (Local Time) from KFWN Reporting Station
Clear Clear  
Wind Chill: 19°   Ceiling: Unl
Heat Index: 19°   Visibility: 10mi
Dew Point: 11°   Wind: 0mph
Humidity: 71%   Direction: NA
Pressure: 30.45"   Gusts: NA
Location:  41.189°N, 74.4273°W
Report Text: KFWN 220153Z AUTO 00000KT 10SM CLR M07/M12 A3045 RMK AO2 SLP319 T10721117
Loading
Personal Weather Stations






























Interactive Weather Map New forecast layout! Learn more

10-Day Weather Forecast

Advertisements
Track Severe Weather on mobile